Time;durP1;ratioP1;P1;durP2;ratioP2;P2;SDS_P1;SDS_P2;PMS_P1;PMS_P2;Temp;Humidity;BMP_temperature;BMP_pressure;BME280_temperature;BME280_humidity;BME280_pressure;Samples;Min_cycle;Max_cycle;Signal;HPM_P1;HPM_P2
2022/08/16 00:00:13;;;;;;;;;;;17.20;99.90;;;;;;5154816;27;19946;-76
2022/08/16 00:02:39;;;;;;;;;;;17.10;99.90;;;;;;5155622;27;19903;-75
2022/08/16 00:05:07;;;;;;;;;;;17.10;99.90;;;;;;5154865;27;19910;-76
2022/08/16 00:07:33;;;;;;;;;;;17.10;99.90;;;;;;5155639;27;19904;-75
2022/08/16 00:09:59;;;;;;;;;;;17.10;99.90;;;;;;5154606;27;20302;-74
2022/08/16 00:12:25;;;;;;;;;;;17.10;99.90;;;;;;5155445;27;19910;-74
2022/08/16 00:14:51;;;;;;;;;;;17.10;99.90;;;;;;5154798;27;19903;-75
2022/08/16 00:17:16;;;;;;;;;;;17.00;99.90;;;;;;5155273;27;20228;-74
2022/08/16 00:19:42;;;;;;;;;;;16.90;99.90;;;;;;5155153;27;19907;-75
2022/08/16 00:22:08;;;;;;;;;;;16.80;99.90;;;;;;5154610;27;20402;-75
2022/08/16 00:24:33;;;;;;;;;;;16.80;99.90;;;;;;5155120;27;20352;-75
2022/08/16 00:27:00;;;;;;;;;;;16.70;99.90;;;;;;5154491;27;20051;-75
2022/08/16 00:29:25;;;;;;;;;;;16.70;99.90;;;;;;5155194;27;19910;-75
2022/08/16 00:31:51;;;;;;;;;;;16.70;99.90;;;;;;5135906;27;19915;-75
2022/08/16 00:34:18;;;;;;;;;;;16.70;99.90;;;;;;5155085;27;19954;-75
2022/08/16 00:36:45;;;;;;;;;;;16.60;99.90;;;;;;5154968;27;19914;-75
2022/08/16 00:39:14;;;;;;;;;;;16.60;99.90;;;;;;5154201;27;19914;-74
2022/08/16 00:41:41;;;;;;;;;;;16.60;99.90;;;;;;5135818;27;20359;-74
2022/08/16 00:44:09;;;;;;;;;;;16.60;99.90;;;;;;5154318;27;19938;-75
2022/08/16 00:46:37;;;;;;;;;;;16.60;99.90;;;;;;5154833;27;20001;-75
2022/08/16 00:49:04;;;;;;;;;;;16.60;99.90;;;;;;5154315;27;19986;-75
2022/08/16 00:51:30;;;;;;;;;;;16.60;99.90;;;;;;5154860;27;19990;-75
2022/08/16 00:53:55;;;;;;;;;;;16.60;99.90;;;;;;5153885;27;19990;-75
2022/08/16 00:56:23;;;;;;;;;;;16.60;99.90;;;;;;5154490;27;20241;-75
2022/08/16 00:58:49;;;;;;;;;;;16.70;99.90;;;;;;5154390;27;19954;-75
2022/08/16 01:01:16;;;;;;;;;;;16.70;99.90;;;;;;5153317;27;20348;-75
2022/08/16 01:03:43;;;;;;;;;;;16.70;99.90;;;;;;5154662;27;19907;-75
2022/08/16 01:06:10;;;;;;;;;;;16.60;99.90;;;;;;5153919;27;19911;-75
2022/08/16 01:08:35;;;;;;;;;;;16.60;99.90;;;;;;5154983;27;19903;-75
2022/08/16 01:11:02;;;;;;;;;;;16.60;99.90;;;;;;5153927;27;20263;-75
2022/08/16 01:13:29;;;;;;;;;;;16.70;99.90;;;;;;5154991;27;20243;-74
2022/08/16 01:15:59;;;;;;;;;;;16.70;99.90;;;;;;5153909;27;19990;-74
2022/08/16 01:18:28;;;;;;;;;;;16.60;99.90;;;;;;5154548;27;19907;-74
2022/08/16 01:21:01;;;;;;;;;;;16.60;99.90;;;;;;5153621;27;19908;-74
2022/08/16 01:23:34;;;;;;;;;;;16.70;99.90;;;;;;5154550;27;19997;-75
2022/08/16 01:26:00;;;;;;;;;;;16.60;99.90;;;;;;5154487;27;19907;-75
2022/08/16 01:28:26;;;;;;;;;;;16.60;99.90;;;;;;5158724;27;19903;-75
2022/08/16 01:30:54;;;;;;;;;;;16.60;99.90;;;;;;5158077;27;20343;-75
2022/08/16 01:33:20;;;;;;;;;;;16.50;99.90;;;;;;5158482;27;19935;-74
2022/08/16 01:35:52;;;;;;;;;;;16.50;99.90;;;;;;5158636;27;19903;-74
2022/08/16 01:38:37;;;;;;;;;;;16.50;99.90;;;;;;5158333;27;19907;-74
2022/08/16 01:41:05;;;;;;;;;;;16.50;99.90;;;;;;5157190;27;20343;-74
2022/08/16 01:43:31;;;;;;;;;;;16.60;99.90;;;;;;5158243;27;19903;-72
2022/08/16 01:45:58;;;;;;;;;;;16.50;99.90;;;;;;5157692;27;19903;-73
2022/08/16 01:48:25;;;;;;;;;;;16.40;99.90;;;;;;5158105;27;19961;-74
2022/08/16 01:50:51;;;;;;;;;;;16.40;99.90;;;;;;5158007;27;19907;-73
2022/08/16 01:53:17;;;;;;;;;;;16.50;99.90;;;;;;5157706;27;19994;-74
2022/08/16 01:55:44;;;;;;;;;;;16.40;99.90;;;;;;5158008;27;20374;-74
2022/08/16 01:58:11;;;;;;;;;;;16.40;99.90;;;;;;5157096;27;19956;-74
2022/08/16 02:00:36;;;;;;;;;;;16.40;99.90;;;;;;5157339;27;20407;-73
2022/08/16 02:03:02;;;;;;;;;;;16.30;99.90;;;;;;5157710;27;19993;-74
2022/08/16 02:05:27;;;;;;;;;;;16.30;99.90;;;;;;5157987;27;19925;-74
2022/08/16 02:07:53;;;;;;;;;;;16.30;99.90;;;;;;5157799;27;20362;-74
2022/08/16 02:10:19;;;;;;;;;;;16.30;99.90;;;;;;5157537;27;19910;-74
2022/08/16 02:12:44;;;;;;;;;;;16.30;99.90;;;;;;5157661;27;19946;-74
2022/08/16 02:15:11;;;;;;;;;;;16.30;99.90;;;;;;5157197;27;19910;-74
2022/08/16 02:17:37;;;;;;;;;;;16.30;99.90;;;;;;5157206;27;19964;-74
2022/08/16 02:20:03;;;;;;;;;;;16.30;99.90;;;;;;5156264;27;19907;-74
2022/08/16 02:22:29;;;;;;;;;;;16.30;99.90;;;;;;5157415;27;19945;-73
2022/08/16 02:24:55;;;;;;;;;;;16.30;99.90;;;;;;5157262;27;19943;-73
2022/08/16 02:27:21;;;;;;;;;;;16.30;99.90;;;;;;5157347;27;19909;-74
2022/08/16 02:29:46;;;;;;;;;;;16.30;99.90;;;;;;5157414;27;19903;-74
2022/08/16 02:32:13;;;;;;;;;;;16.30;99.90;;;;;;5149583;27;19903;-74
2022/08/16 02:34:39;;;;;;;;;;;16.30;99.90;;;;;;5136887;27;19903;-73
2022/08/16 02:37:04;;;;;;;;;;;16.20;99.90;;;;;;5135260;27;20324;-73
2022/08/16 02:39:30;;;;;;;;;;;16.30;99.90;;;;;;5135598;27;20327;-74
2022/08/16 02:41:55;;;;;;;;;;;16.20;99.90;;;;;;5135482;27;19968;-73
2022/08/16 02:44:22;;;;;;;;;;;16.20;99.90;;;;;;5136106;27;19991;-73
2022/08/16 02:46:48;;;;;;;;;;;16.20;99.90;;;;;;5136474;27;19911;-73
2022/08/16 02:49:13;;;;;;;;;;;16.20;99.90;;;;;;5135341;27;19903;-74
2022/08/16 02:51:39;;;;;;;;;;;16.20;99.90;;;;;;5136318;27;20393;-73
2022/08/16 02:54:05;;;;;;;;;;;16.10;99.90;;;;;;5135696;27;20259;-74
2022/08/16 02:56:31;;;;;;;;;;;16.10;99.90;;;;;;5136200;27;19947;-74
2022/08/16 02:58:56;;;;;;;;;;;16.10;99.90;;;;;;5135964;27;20307;-74
2022/08/16 03:01:24;;;;;;;;;;;16.10;99.90;;;;;;5135537;27;19903;-73
2022/08/16 03:03:50;;;;;;;;;;;16.10;99.90;;;;;;5136035;27;19904;-74
2022/08/16 03:06:18;;;;;;;;;;;16.20;99.90;;;;;;5135236;27;19915;-74
2022/08/16 03:08:43;;;;;;;;;;;16.20;99.90;;;;;;5135905;27;19904;-74
2022/08/16 03:11:09;;;;;;;;;;;16.10;99.90;;;;;;5135358;27;19911;-73
2022/08/16 03:13:35;;;;;;;;;;;16.10;99.90;;;;;;5135785;27;19907;-73
2022/08/16 03:16:00;;;;;;;;;;;16.00;99.90;;;;;;5135145;27;19949;-74
2022/08/16 03:18:26;;;;;;;;;;;16.00;99.90;;;;;;5135665;27;19951;-74
2022/08/16 03:20:52;;;;;;;;;;;16.00;99.90;;;;;;5135246;27;20343;-73
2022/08/16 03:23:17;;;;;;;;;;;16.00;99.90;;;;;;5135001;27;19907;-73
2022/08/16 03:25:43;;;;;;;;;;;16.00;99.90;;;;;;5135427;27;19903;-73
2022/08/16 03:28:08;;;;;;;;;;;16.00;99.90;;;;;;5135170;27;19992;-74
2022/08/16 03:30:35;;;;;;;;;;;16.00;99.90;;;;;;5135495;27;20347;-74
2022/08/16 03:33:01;;;;;;;;;;;16.00;99.90;;;;;;5134973;27;19926;-74
2022/08/16 03:35:28;;;;;;;;;;;16.00;99.90;;;;;;5135474;27;19903;-74
2022/08/16 03:37:55;;;;;;;;;;;16.00;99.90;;;;;;5135270;27;20011;-74
2022/08/16 03:40:22;;;;;;;;;;;15.90;99.90;;;;;;5116222;27;20000;-74
2022/08/16 03:42:47;;;;;;;;;;;15.90;99.90;;;;;;5135083;27;19919;-74
2022/08/16 03:45:13;;;;;;;;;;;15.90;99.90;;;;;;5134462;27;19903;-74
2022/08/16 03:47:39;;;;;;;;;;;15.80;99.90;;;;;;5135261;27;19909;-74
2022/08/16 03:50:05;;;;;;;;;;;15.90;99.90;;;;;;5134037;27;19904;-74
2022/08/16 03:52:31;;;;;;;;;;;15.90;99.90;;;;;;5134887;27;19934;-74
2022/08/16 03:54:58;;;;;;;;;;;15.90;99.90;;;;;;5135399;27;20388;-74
2022/08/16 03:57:23;;;;;;;;;;;15.80;99.90;;;;;;5134397;27;19912;-74
2022/08/16 03:59:49;;;;;;;;;;;15.80;99.90;;;;;;5134638;27;19911;-74
2022/08/16 04:02:17;;;;;;;;;;;15.80;99.90;;;;;;5133698;27;19903;-74
2022/08/16 04:04:43;;;;;;;;;;;15.70;99.90;;;;;;5134695;27;19903;-74
2022/08/16 04:07:09;;;;;;;;;;;15.80;99.90;;;;;;5134138;27;19903;-73
2022/08/16 04:09:36;;;;;;;;;;;15.70;99.90;;;;;;5134898;27;19910;-74
2022/08/16 04:12:03;;;;;;;;;;;15.70;99.90;;;;;;5134177;27;19919;-74
2022/08/16 04:14:29;;;;;;;;;;;15.70;99.90;;;;;;5134518;27;19926;-74
2022/08/16 04:16:55;;;;;;;;;;;15.70;99.90;;;;;;5134531;27;19912;-74
2022/08/16 04:19:22;;;;;;;;;;;15.70;99.90;;;;;;5133643;27;19910;-74
2022/08/16 04:21:47;;;;;;;;;;;15.80;99.90;;;;;;5134156;27;19911;-74
2022/08/16 04:24:13;;;;;;;;;;;15.70;99.90;;;;;;5133908;27;19903;-74
2022/08/16 04:26:39;;;;;;;;;;;15.70;99.90;;;;;;5134152;27;20363;-74
2022/08/16 04:29:04;;;;;;;;;;;15.70;99.90;;;;;;5133588;27;19907;-74
2022/08/16 04:31:30;;;;;;;;;;;15.70;99.90;;;;;;5134153;27;20267;-74
2022/08/16 04:33:58;;;;;;;;;;;15.70;99.90;;;;;;5134339;27;19994;-74
2022/08/16 04:36:24;;;;;;;;;;;15.70;99.90;;;;;;5134135;27;20304;-73
2022/08/16 04:38:50;;;;;;;;;;;15.80;99.90;;;;;;5133940;27;20268;-74
2022/08/16 04:41:16;;;;;;;;;;;15.70;99.90;;;;;;5133159;27;19915;-74
2022/08/16 04:43:42;;;;;;;;;;;15.70;99.90;;;;;;5133743;27;19960;-73
2022/08/16 04:46:08;;;;;;;;;;;15.60;99.90;;;;;;5133398;27;19904;-73
2022/08/16 04:48:35;;;;;;;;;;;15.60;99.90;;;;;;5133381;27;20467;-74
2022/08/16 04:51:03;;;;;;;;;;;15.50;99.90;;;;;;5133857;27;19907;-74
2022/08/16 04:53:28;;;;;;;;;;;15.50;99.90;;;;;;5133931;27;20428;-73
2022/08/16 04:55:54;;;;;;;;;;;15.50;99.90;;;;;;5134043;27;20009;-74
2022/08/16 04:58:20;;;;;;;;;;;15.50;99.90;;;;;;5133339;27;20336;-74
2022/08/16 05:00:45;;;;;;;;;;;15.50;99.90;;;;;;5133210;27;19907;-74
2022/08/16 05:03:11;;;;;;;;;;;15.50;99.90;;;;;;5132816;27;19914;-74
2022/08/16 05:05:39;;;;;;;;;;;15.50;99.90;;;;;;5133643;27;20319;-74
2022/08/16 05:08:05;;;;;;;;;;;15.50;99.90;;;;;;5133387;28;19908;-74
2022/08/16 05:10:30;;;;;;;;;;;15.30;99.90;;;;;;5134043;28;19911;-74
2022/08/16 05:12:57;;;;;;;;;;;15.50;99.90;;;;;;5133874;28;19903;-74
2022/08/16 05:15:22;;;;;;;;;;;15.40;99.90;;;;;;5133206;28;20509;-74
2022/08/16 05:17:48;;;;;;;;;;;15.40;99.90;;;;;;5133690;28;19908;-74
2022/08/16 05:20:14;;;;;;;;;;;15.40;99.90;;;;;;5133250;28;19915;-74
2022/08/16 05:22:41;;;;;;;;;;;15.40;99.90;;;;;;5133392;28;19907;-74
2022/08/16 05:25:07;;;;;;;;;;;15.40;99.90;;;;;;5133161;28;19908;-73
2022/08/16 05:27:33;;;;;;;;;;;15.50;99.90;;;;;;5133788;28;20404;-74
2022/08/16 05:29:58;;;;;;;;;;;15.40;99.90;;;;;;5133960;28;19949;-74
2022/08/16 05:32:24;;;;;;;;;;;15.40;99.90;;;;;;5133064;28;20523;-74
2022/08/16 05:34:49;;;;;;;;;;;15.40;99.90;;;;;;5133708;28;19904;-74
2022/08/16 05:37:15;;;;;;;;;;;15.40;99.90;;;;;;5133068;28;19907;-74
2022/08/16 05:39:41;;;;;;;;;;;15.30;99.90;;;;;;5133514;28;19913;-74
2022/08/16 05:42:06;;;;;;;;;;;15.40;99.90;;;;;;5132397;28;20265;-74
2022/08/16 05:44:32;;;;;;;;;;;15.40;99.90;;;;;;5133435;28;19998;-74
2022/08/16 05:46:58;;;;;;;;;;;15.40;99.90;;;;;;5133377;28;19911;-74
2022/08/16 05:49:25;;;;;;;;;;;15.40;99.90;;;;;;5132661;28;20560;-74
2022/08/16 05:51:51;;;;;;;;;;;15.50;99.90;;;;;;5133420;28;19903;-73
2022/08/16 05:54:17;;;;;;;;;;;15.50;99.90;;;;;;5132541;28;19911;-73
2022/08/16 05:56:44;;;;;;;;;;;15.50;99.90;;;;;;5133434;28;19903;-74
2022/08/16 05:59:10;;;;;;;;;;;15.40;99.90;;;;;;5132881;28;19914;-74
2022/08/16 06:01:37;;;;;;;;;;;15.40;99.90;;;;;;5133241;28;19910;-74
2022/08/16 06:04:03;;;;;;;;;;;15.40;99.90;;;;;;5132720;28;20251;-74
2022/08/16 06:06:28;;;;;;;;;;;15.30;99.90;;;;;;5133004;28;19904;-74
2022/08/16 06:08:54;;;;;;;;;;;15.30;99.90;;;;;;5133271;28;19907;-74
2022/08/16 06:11:20;;;;;;;;;;;15.30;99.90;;;;;;5132813;28;19946;-74
2022/08/16 06:13:46;;;;;;;;;;;15.30;99.90;;;;;;5136473;27;19942;-74
2022/08/16 06:16:12;;;;;;;;;;;15.40;99.90;;;;;;5136166;27;19918;-74
2022/08/16 06:18:37;;;;;;;;;;;15.30;99.90;;;;;;5136597;27;20005;-74
2022/08/16 06:21:03;;;;;;;;;;;15.30;99.90;;;;;;5136813;27;19916;-74
2022/08/16 06:23:29;;;;;;;;;;;15.30;99.90;;;;;;5135635;27;19910;-74
2022/08/16 06:25:54;;;;;;;;;;;15.30;99.90;;;;;;5136856;27;19903;-74
2022/08/16 06:28:20;;;;;;;;;;;15.30;99.90;;;;;;5136538;27;20284;-75
2022/08/16 06:30:46;;;;;;;;;;;15.30;99.90;;;;;;5136645;27;20252;-73
2022/08/16 06:33:13;;;;;;;;;;;15.30;99.90;;;;;;5136140;27;19907;-74
2022/08/16 06:35:39;;;;;;;;;;;15.20;99.90;;;;;;5136879;27;19911;-74
2022/08/16 06:38:04;;;;;;;;;;;15.30;99.90;;;;;;5136204;27;19912;-75
2022/08/16 06:40:31;;;;;;;;;;;15.30;99.90;;;;;;5117133;27;20397;-73
2022/08/16 06:42:57;;;;;;;;;;;15.30;99.90;;;;;;5136187;27;19935;-74
2022/08/16 06:45:23;;;;;;;;;;;15.30;99.90;;;;;;5135715;27;20259;-75
2022/08/16 06:47:48;;;;;;;;;;;15.40;99.90;;;;;;5136118;27;20001;-74
2022/08/16 06:50:14;;;;;;;;;;;15.20;99.90;;;;;;5135768;27;19903;-74
2022/08/16 06:52:41;;;;;;;;;;;15.20;99.90;;;;;;5136043;27;19999;-74
2022/08/16 06:55:08;;;;;;;;;;;15.10;99.90;;;;;;5136096;27;20347;-74
2022/08/16 06:57:34;;;;;;;;;;;15.10;99.90;;;;;;5135664;27;19908;-74
2022/08/16 06:59:59;;;;;;;;;;;15.10;99.90;;;;;;5136068;27;19919;-74
2022/08/16 07:02:25;;;;;;;;;;;15.20;99.90;;;;;;5135523;27;19910;-74
2022/08/16 07:04:52;;;;;;;;;;;15.10;99.90;;;;;;5117481;27;20229;-75
2022/08/16 07:07:19;;;;;;;;;;;15.00;99.90;;;;;;5135244;27;20251;-75
2022/08/16 07:09:46;;;;;;;;;;;15.00;99.90;;;;;;5135612;27;19903;-75
2022/08/16 07:12:12;;;;;;;;;;;15.00;99.90;;;;;;5134673;27;20423;-75
2022/08/16 07:14:38;;;;;;;;;;;15.10;99.90;;;;;;5135443;27;19903;-75
2022/08/16 07:17:04;;;;;;;;;;;15.20;99.90;;;;;;5135398;27;19957;-75
2022/08/16 07:19:31;;;;;;;;;;;15.20;99.90;;;;;;5134989;27;20073;-76
2022/08/16 07:21:56;;;;;;;;;;;15.30;99.90;;;;;;5135103;27;19910;-74
2022/08/16 07:24:22;;;;;;;;;;;15.30;99.90;;;;;;5133666;27;19903;-74
2022/08/16 07:26:47;;;;;;;;;;;15.30;99.90;;;;;;5135531;27;20251;-73
2022/08/16 07:29:13;;;;;;;;;;;15.30;99.90;;;;;;5134880;27;20391;-74
2022/08/16 07:31:39;;;;;;;;;;;15.40;99.90;;;;;;5135589;27;19907;-72
2022/08/16 07:34:04;;;;;;;;;;;15.40;99.90;;;;;;5135566;27;19999;-73
2022/08/16 07:36:30;;;;;;;;;;;15.30;99.90;;;;;;5134725;27;20141;-74
2022/08/16 07:38:56;;;;;;;;;;;15.30;99.90;;;;;;5116750;27;19914;-75
2022/08/16 07:41:21;;;;;;;;;;;15.30;99.90;;;;;;5134683;27;19926;-75
2022/08/16 07:43:47;;;;;;;;;;;15.30;99.90;;;;;;5135098;27;20366;-75
2022/08/16 07:46:13;;;;;;;;;;;15.30;99.90;;;;;;5134423;27;19903;-75
2022/08/16 07:48:38;;;;;;;;;;;15.40;99.90;;;;;;5135190;27;19903;-75
2022/08/16 07:51:04;;;;;;;;;;;15.40;99.90;;;;;;5134838;27;20464;-75
2022/08/16 07:53:31;;;;;;;;;;;15.40;99.90;;;;;;5134346;27;19915;-75
2022/08/16 07:55:58;;;;;;;;;;;15.50;99.90;;;;;;5134921;27;19904;-76
2022/08/16 07:58:24;;;;;;;;;;;15.60;99.90;;;;;;5133916;27;20391;-75
2022/08/16 08:00:50;;;;;;;;;;;15.50;99.90;;;;;;5134357;27;19938;-75
2022/08/16 08:03:15;;;;;;;;;;;15.60;99.90;;;;;;5134051;27;19987;-75
2022/08/16 08:05:41;;;;;;;;;;;15.50;99.90;;;;;;5116132;27;19984;-75
2022/08/16 08:08:07;;;;;;;;;;;15.50;99.90;;;;;;5133979;27;19904;-75
2022/08/16 08:10:32;;;;;;;;;;;15.70;99.90;;;;;;5133921;27;20531;-75
2022/08/16 08:12:58;;;;;;;;;;;15.60;99.90;;;;;;5134543;27;19956;-76
2022/08/16 08:15:23;;;;;;;;;;;15.70;99.90;;;;;;5133897;27;19904;-75
2022/08/16 08:17:49;;;;;;;;;;;15.80;99.90;;;;;;5134200;27;19919;-75
2022/08/16 08:20:16;;;;;;;;;;;15.80;99.90;;;;;;5133851;27;19947;-76
2022/08/16 08:22:45;;;;;;;;;;;15.80;99.90;;;;;;5134156;27;19913;-75
2022/08/16 08:25:10;;;;;;;;;;;15.80;99.90;;;;;;5134016;27;19904;-76
2022/08/16 08:27:36;;;;;;;;;;;15.80;99.90;;;;;;5133809;27;19990;-75
2022/08/16 08:30:02;;;;;;;;;;;15.80;99.90;;;;;;5133682;27;19955;-76
2022/08/16 08:32:28;;;;;;;;;;;15.70;99.90;;;;;;5132766;27;19903;-75
2022/08/16 08:34:54;;;;;;;;;;;15.70;99.90;;;;;;5133491;27;19914;-77
2022/08/16 08:37:21;;;;;;;;;;;15.80;99.90;;;;;;5132912;27;19922;-75
2022/08/16 08:39:47;;;;;;;;;;;15.80;99.90;;;;;;5133492;27;19904;-75
2022/08/16 08:42:14;;;;;;;;;;;15.90;99.90;;;;;;5132182;27;20384;-75
2022/08/16 08:44:40;;;;;;;;;;;16.10;99.90;;;;;;5113915;27;20263;-75
2022/08/16 08:47:06;;;;;;;;;;;16.20;99.90;;;;;;5133350;27;19908;-75
2022/08/16 08:49:32;;;;;;;;;;;16.30;99.90;;;;;;5132954;27;20416;-76
2022/08/16 08:51:57;;;;;;;;;;;16.60;99.90;;;;;;5114763;27;19903;-75
2022/08/16 08:54:24;;;;;;;;;;;16.80;99.90;;;;;;5132618;27;19907;-75
2022/08/16 08:56:51;;;;;;;;;;;16.90;99.90;;;;;;5133232;27;19950;-75
2022/08/16 08:59:16;;;;;;;;;;;17.00;99.90;;;;;;5132921;27;19903;-75
2022/08/16 09:01:42;;;;;;;;;;;17.20;99.90;;;;;;5133660;27;19956;-75
2022/08/16 09:04:08;;;;;;;;;;;17.20;99.90;;;;;;5132984;27;19927;-75
2022/08/16 09:06:34;;;;;;;;;;;17.10;99.90;;;;;;5132675;28;20060;-75
2022/08/16 09:08:59;;;;;;;;;;;16.90;99.90;;;;;;5133271;28;20002;-76
2022/08/16 09:11:25;;;;;;;;;;;16.80;99.90;;;;;;5132613;28;19990;-75
2022/08/16 09:13:51;;;;;;;;;;;16.90;99.90;;;;;;5133088;28;19911;-75
2022/08/16 09:16:17;;;;;;;;;;;16.90;99.90;;;;;;5132300;28;19903;-75
2022/08/16 09:18:43;;;;;;;;;;;17.00;99.90;;;;;;5132975;28;19964;-76
2022/08/16 09:21:09;;;;;;;;;;;16.90;99.90;;;;;;5133217;28;20445;-76
2022/08/16 09:23:35;;;;;;;;;;;16.80;99.90;;;;;;5132380;28;20039;-75
2022/08/16 09:26:01;;;;;;;;;;;16.80;99.90;;;;;;5132818;28;20348;-75
2022/08/16 09:28:27;;;;;;;;;;;16.80;99.90;;;;;;5132578;28;19910;-75
2022/08/16 09:30:53;;;;;;;;;;;16.80;99.90;;;;;;5114866;28;19903;-75
2022/08/16 09:33:19;;;;;;;;;;;16.80;99.90;;;;;;5132103;28;19961;-74
2022/08/16 09:35:45;;;;;;;;;;;16.80;99.90;;;;;;5132900;28;19935;-75
2022/08/16 09:38:12;;;;;;;;;;;16.80;99.90;;;;;;5132821;28;19933;-75
2022/08/16 09:40:40;;;;;;;;;;;16.90;99.90;;;;;;5132420;28;19904;-75
2022/08/16 09:43:06;;;;;;;;;;;17.00;99.90;;;;;;5132985;28;19903;-74
2022/08/16 09:45:37;;;;;;;;;;;16.90;99.90;;;;;;5131553;28;19907;-74
2022/08/16 09:48:06;;;;;;;;;;;16.90;99.90;;;;;;5135161;27;19915;-75
2022/08/16 09:50:34;;;;;;;;;;;16.90;99.90;;;;;;5136474;27;19915;-75
2022/08/16 09:53:00;;;;;;;;;;;16.90;99.90;;;;;;5118126;27;19947;-75
2022/08/16 09:55:26;;;;;;;;;;;16.90;99.90;;;;;;5136197;27;19957;-75
2022/08/16 09:57:51;;;;;;;;;;;17.10;99.90;;;;;;5118372;27;19955;-75
2022/08/16 10:00:17;;;;;;;;;;;17.00;99.90;;;;;;5135830;27;19910;-75
2022/08/16 10:02:43;;;;;;;;;;;16.90;99.90;;;;;;5118008;27;19910;-75
2022/08/16 10:05:08;;;;;;;;;;;16.90;99.90;;;;;;5136381;27;19904;-75
2022/08/16 10:07:34;;;;;;;;;;;17.00;99.90;;;;;;5135134;27;19908;-74
2022/08/16 10:10:00;;;;;;;;;;;17.00;99.90;;;;;;5136528;27;20396;-75
2022/08/16 10:15:11;;;;;;;;;;;17.00;99.90;;;;;;5136686;27;20367;-75
2022/08/16 10:17:41;;;;;;;;;;;17.10;99.90;;;;;;5135547;27;19915;-76
2022/08/16 10:20:10;;;;;;;;;;;17.20;99.90;;;;;;5136113;27;19910;-76
2022/08/16 10:22:36;;;;;;;;;;;17.20;99.90;;;;;;5117321;27;19903;-76
2022/08/16 10:25:02;;;;;;;;;;;17.20;99.90;;;;;;5117620;27;19907;-75
2022/08/16 10:27:27;;;;;;;;;;;17.20;99.90;;;;;;5135419;27;20361;-76
2022/08/16 10:29:53;;;;;;;;;;;17.40;99.90;;;;;;5135964;27;19994;-76
2022/08/16 10:32:19;;;;;;;;;;;17.50;99.90;;;;;;5135257;27;19986;-75
2022/08/16 10:34:45;;;;;;;;;;;17.60;99.90;;;;;;5135776;27;19910;-76
2022/08/16 10:37:11;;;;;;;;;;;17.60;99.90;;;;;;5135926;27;20005;-77
2022/08/16 10:39:38;;;;;;;;;;;17.80;99.90;;;;;;5135151;27;20027;-76
2022/08/16 10:42:05;;;;;;;;;;;17.90;99.90;;;;;;5135665;27;19958;-74
2022/08/16 10:44:31;;;;;;;;;;;17.90;99.90;;;;;;5135480;27;19903;-75
2022/08/16 10:46:56;;;;;;;;;;;18.00;99.90;;;;;;5135773;27;19908;-75
2022/08/16 10:49:22;;;;;;;;;;;18.10;99.90;;;;;;5135697;27;20001;-75
2022/08/16 10:51:47;;;;;;;;;;;18.20;99.90;;;;;;5136180;27;19911;-75
2022/08/16 10:54:13;;;;;;;;;;;18.30;99.90;;;;;;5136143;27;20292;-74
2022/08/16 10:56:39;;;;;;;;;;;18.30;99.90;;;;;;5135411;27;19910;-74
2022/08/16 10:59:04;;;;;;;;;;;18.30;99.90;;;;;;5134872;27;19919;-74
2022/08/16 11:01:30;;;;;;;;;;;18.20;99.90;;;;;;5135537;27;20344;-75
2022/08/16 11:03:56;;;;;;;;;;;18.20;99.90;;;;;;5135716;27;19939;-74
2022/08/16 11:06:22;;;;;;;;;;;18.30;99.90;;;;;;5135079;27;20391;-74
2022/08/16 11:08:47;;;;;;;;;;;18.40;99.90;;;;;;5135946;27;19910;-74
2022/08/16 11:11:14;;;;;;;;;;;18.40;99.90;;;;;;5135724;27;19987;-74
2022/08/16 11:13:40;;;;;;;;;;;18.50;99.90;;;;;;5135400;27;20389;-74
2022/08/16 11:16:06;;;;;;;;;;;18.50;99.90;;;;;;5135532;27;19912;-73
2022/08/16 11:18:32;;;;;;;;;;;18.40;99.90;;;;;;5135018;27;19915;-73
2022/08/16 11:20:58;;;;;;;;;;;18.20;99.90;;;;;;5116971;27;19903;-74
2022/08/16 11:23:24;;;;;;;;;;;18.20;99.90;;;;;;5134617;27;19903;-73
2022/08/16 11:25:50;;;;;;;;;;;18.30;99.90;;;;;;5135500;27;19911;-73
2022/08/16 11:28:16;;;;;;;;;;;18.30;99.90;;;;;;5135417;27;19950;-73
2022/08/16 11:30:42;;;;;;;;;;;18.20;99.90;;;;;;5134952;27;19930;-73
2022/08/16 11:33:08;;;;;;;;;;;18.30;99.90;;;;;;5135486;27;19903;-74
2022/08/16 11:35:34;;;;;;;;;;;18.40;99.90;;;;;;5135158;27;19903;-74
2022/08/16 11:38:01;;;;;;;;;;;18.40;99.90;;;;;;5135142;27;20057;-74
2022/08/16 11:40:30;;;;;;;;;;;18.50;99.90;;;;;;5134534;27;19910;-73
2022/08/16 11:42:56;;;;;;;;;;;18.50;99.90;;;;;;5135317;27;20428;-74
2022/08/16 11:45:22;;;;;;;;;;;18.50;99.90;;;;;;5134604;27;19908;-73
2022/08/16 11:47:48;;;;;;;;;;;18.60;99.90;;;;;;5134745;27;19956;-73
2022/08/16 11:50:15;;;;;;;;;;;18.40;99.90;;;;;;5135191;27;19904;-73
2022/08/16 11:52:41;;;;;;;;;;;18.30;99.90;;;;;;5133537;27;19962;-73
2022/08/16 11:55:08;;;;;;;;;;;18.20;99.90;;;;;;5130899;27;19939;-73
2022/08/16 11:57:34;;;;;;;;;;;18.20;99.90;;;;;;5115195;27;19916;-74
2022/08/16 12:00:00;;;;;;;;;;;18.10;99.90;;;;;;5134100;27;19911;-73
2022/08/16 12:02:26;;;;;;;;;;;18.00;99.90;;;;;;5133937;27;19910;-74
2022/08/16 12:04:52;;;;;;;;;;;17.90;99.90;;;;;;5134569;27;19967;-73
2022/08/16 12:07:18;;;;;;;;;;;17.90;99.90;;;;;;5134109;27;20340;-74
2022/08/16 12:09:44;;;;;;;;;;;17.90;99.90;;;;;;5133768;27;19903;-73
2022/08/16 12:12:09;;;;;;;;;;;17.90;99.90;;;;;;5116292;27;19903;-74
2022/08/16 12:14:35;;;;;;;;;;;17.90;99.90;;;;;;5134065;27;19945;-73
2022/08/16 12:17:01;;;;;;;;;;;17.80;99.90;;;;;;5134414;27;19907;-73
2022/08/16 12:19:28;;;;;;;;;;;17.80;99.90;;;;;;5133634;27;19904;-74
2022/08/16 12:21:53;;;;;;;;;;;17.70;99.90;;;;;;5134474;27;19950;-74
2022/08/16 12:24:19;;;;;;;;;;;17.70;99.90;;;;;;5134299;27;19976;-73
2022/08/16 12:26:45;;;;;;;;;;;17.70;99.90;;;;;;5115033;27;19961;-74
2022/08/16 12:29:10;;;;;;;;;;;17.70;99.90;;;;;;5134290;27;19939;-73
2022/08/16 12:31:36;;;;;;;;;;;17.70;99.90;;;;;;5133486;27;19911;-74
2022/08/16 12:34:01;;;;;;;;;;;17.70;99.90;;;;;;5133935;27;19908;-74
2022/08/16 12:36:27;;;;;;;;;;;17.80;99.90;;;;;;5133694;27;19911;-74
2022/08/16 12:38:54;;;;;;;;;;;17.80;99.90;;;;;;5134173;27;19964;-74
2022/08/16 12:41:20;;;;;;;;;;;17.80;99.90;;;;;;5134104;27;19915;-74
2022/08/16 12:43:45;;;;;;;;;;;17.90;99.90;;;;;;5133322;27;19998;-74
2022/08/16 12:46:11;;;;;;;;;;;17.90;99.90;;;;;;5133281;27;19945;-74
2022/08/16 12:51:23;;;;;;;;;;;18.10;99.90;;;;;;5133466;27;20331;-75
2022/08/16 12:53:50;;;;;;;;;;;18.10;99.90;;;;;;5133444;27;20408;-74
2022/08/16 12:56:18;;;;;;;;;;;18.20;99.90;;;;;;5133579;27;19911;-74
2022/08/16 12:58:46;;;;;;;;;;;18.20;99.90;;;;;;5132600;27;20508;-74
2022/08/16 13:01:11;;;;;;;;;;;18.10;99.90;;;;;;5133109;27;19907;-74
2022/08/16 13:03:38;;;;;;;;;;;18.00;99.90;;;;;;5132652;27;20344;-74
2022/08/16 13:06:03;;;;;;;;;;;18.00;99.90;;;;;;5132781;27;20614;-75
2022/08/16 13:08:29;;;;;;;;;;;18.00;99.90;;;;;;5132041;27;19947;-74
2022/08/16 13:10:54;;;;;;;;;;;17.90;99.90;;;;;;5133168;28;20005;-75
2022/08/16 13:13:23;;;;;;;;;;;18.00;99.90;;;;;;5133196;28;19968;-74
2022/08/16 13:15:50;;;;;;;;;;;18.00;99.90;;;;;;5133508;28;19904;-74
2022/08/16 13:18:16;;;;;;;;;;;18.00;99.90;;;;;;5133074;28;19911;-74
2022/08/16 13:20:42;;;;;;;;;;;18.00;99.90;;;;;;5132496;28;19998;-74
2022/08/16 13:23:10;;;;;;;;;;;18.00;99.90;;;;;;5136171;27;19987;-74
2022/08/16 13:25:36;;;;;;;;;;;18.20;99.90;;;;;;5136769;27;19911;-74
2022/08/16 13:28:02;;;;;;;;;;;18.20;99.90;;;;;;5136832;27;19959;-74
2022/08/16 13:30:29;;;;;;;;;;;18.30;99.90;;;;;;5136846;27;19909;-74
2022/08/16 13:32:55;;;;;;;;;;;18.30;99.90;;;;;;5137244;27;19927;-74
2022/08/16 13:35:21;;;;;;;;;;;18.40;99.90;;;;;;5118863;27;20360;-73
2022/08/16 13:37:47;;;;;;;;;;;18.40;99.90;;;;;;5136083;27;19912;-75
2022/08/16 13:40:12;;;;;;;;;;;18.40;99.90;;;;;;5118591;27;19910;-75
2022/08/16 13:42:39;;;;;;;;;;;18.40;99.90;;;;;;5136528;27;19916;-75
2022/08/16 13:45:09;;;;;;;;;;;18.40;99.90;;;;;;5137017;27;19910;-73
2022/08/16 13:47:34;;;;;;;;;;;18.40;99.90;;;;;;5136331;27;19907;-74
2022/08/16 13:50:00;;;;;;;;;;;18.50;99.90;;;;;;5136250;27;19957;-74
2022/08/16 13:52:26;;;;;;;;;;;18.50;99.90;;;;;;5136265;27;19926;-74
2022/08/16 13:54:52;;;;;;;;;;;18.60;99.90;;;;;;5118305;27;20353;-74
2022/08/16 13:57:18;;;;;;;;;;;18.60;99.90;;;;;;5136417;27;19918;-75
2022/08/16 13:59:43;;;;;;;;;;;18.50;99.90;;;;;;5135941;27;19965;-74
2022/08/16 14:02:10;;;;;;;;;;;18.60;99.90;;;;;;5136599;27;19907;-73
2022/08/16 14:04:37;;;;;;;;;;;18.70;99.90;;;;;;5135838;27;20344;-74
2022/08/16 14:07:03;;;;;;;;;;;18.80;99.90;;;;;;5135905;27;19915;-74
2022/08/16 14:09:30;;;;;;;;;;;18.80;99.90;;;;;;5135720;27;20333;-74
2022/08/16 14:11:56;;;;;;;;;;;18.80;99.90;;;;;;5136027;27;19903;-74
2022/08/16 14:14:22;;;;;;;;;;;18.80;99.90;;;;;;5136559;27;20378;-74